createdAt,value
2022-10-24T00:00:37.680Z,11.4
2022-10-24T00:01:42.106Z,11.6
2022-10-24T00:02:46.308Z,11.7
2022-10-24T00:03:50.391Z,11.8
2022-10-24T00:04:54.575Z,12.6
2022-10-24T00:05:58.738Z,13.2
2022-10-24T00:07:03.343Z,12.3
2022-10-24T00:08:07.463Z,12.6
2022-10-24T00:09:11.548Z,12.9
2022-10-24T00:10:15.641Z,12.3
2022-10-24T00:11:19.790Z,12.7
2022-10-24T00:12:24.348Z,12.7
2022-10-24T00:13:28.430Z,13.6
2022-10-24T00:14:32.576Z,12.8
2022-10-24T00:15:36.635Z,13.2
2022-10-24T00:16:40.760Z,13
2022-10-24T00:17:44.842Z,12.8
2022-10-24T00:18:49.087Z,13.4
2022-10-24T00:19:53.578Z,13.3
2022-10-24T00:20:58.027Z,12.6
2022-10-24T00:22:02.698Z,12.6
2022-10-24T00:23:07.298Z,11.8
2022-10-24T00:24:11.910Z,11.6
2022-10-24T00:25:16.014Z,11.7
2022-10-24T00:26:20.127Z,11.1
2022-10-24T00:27:24.247Z,11.9
2022-10-24T00:28:28.862Z,10.9
2022-10-24T00:29:33.482Z,12.1
2022-10-24T00:30:38.018Z,11.7
2022-10-24T00:31:42.088Z,11
2022-10-24T00:32:46.378Z,10.6
2022-10-24T00:33:50.335Z,10.6
2022-10-24T00:34:54.458Z,10.6
2022-10-24T00:35:58.795Z,11.5
2022-10-24T00:37:02.898Z,11.7
2022-10-24T00:38:06.986Z,10.9
2022-10-24T00:39:11.151Z,11.4
2022-10-24T00:40:15.192Z,11.7
2022-10-24T00:41:19.275Z,10.4
2022-10-24T00:42:29.540Z,11.5
2022-10-24T00:43:33.615Z,11.7
2022-10-24T00:44:37.806Z,10.7
2022-10-24T00:45:42.325Z,10.3
2022-10-24T00:46:51.582Z,10.3
2022-10-24T00:47:55.714Z,10.9
2022-10-24T00:49:00.038Z,10.7
2022-10-24T00:50:04.094Z,9.9
2022-10-24T00:51:13.371Z,10.4
2022-10-24T00:52:28.302Z,10.3
2022-10-24T00:53:32.430Z,11.2
2022-10-24T00:54:36.547Z,11.1
2022-10-24T00:55:40.640Z,11.2
2022-10-24T00:56:45.269Z,10.5
2022-10-24T00:57:57.341Z,10.4
2022-10-24T00:59:01.914Z,10.6
2022-10-24T01:00:05.946Z,9.9
2022-10-24T01:01:10.707Z,10.3
2022-10-24T01:03:18.753Z,11.7
2022-10-24T01:04:22.902Z,10.3
2022-10-24T01:05:27.006Z,10.1
2022-10-24T01:06:34.228Z,10.4
2022-10-24T01:07:49.066Z,10.9
2022-10-24T01:08:58.696Z,10.5
2022-10-24T01:10:08.210Z,9.3
2022-10-24T01:11:23.097Z,9.7
2022-10-24T01:12:32.357Z,9.5
2022-10-24T01:13:45.074Z,9.6
2022-10-24T01:14:57.135Z,9.7
2022-10-24T01:16:06.353Z,9.2
2022-10-24T01:17:15.581Z,9.1
2022-10-24T01:18:24.794Z,9.5
2022-10-24T01:19:31.947Z,8.7
2022-10-24T01:20:39.116Z,9.2
2022-10-24T01:21:48.543Z,10
2022-10-24T01:22:52.990Z,10.3
2022-10-24T01:24:07.590Z,9.2
2022-10-24T01:25:19.906Z,10.3
2022-10-24T01:26:32.065Z,9.6
2022-10-24T01:27:44.068Z,9.1
2022-10-24T01:28:56.158Z,8.8
2022-10-24T01:30:05.630Z,9.1
2022-10-24T01:31:12.846Z,9.2
2022-10-24T01:32:16.974Z,9.2
2022-10-24T01:33:26.690Z,8.7
2022-10-24T01:34:30.778Z,9.1
2022-10-24T01:35:43.078Z,8.9
2022-10-24T01:36:50.298Z,8.9
2022-10-24T01:37:57.170Z,8.6
2022-10-24T01:39:04.410Z,8.6
2022-10-24T01:40:08.410Z,8.7
2022-10-24T01:41:18.655Z,8.4
2022-10-24T01:42:22.785Z,8.5
2022-10-24T01:43:26.893Z,7.7
2022-10-24T01:44:39.141Z,8.7
2022-10-24T01:45:43.226Z,8.5
2022-10-24T01:46:47.346Z,8.2
2022-10-24T01:47:51.573Z,8
2022-10-24T01:48:56.069Z,8.7
2022-10-24T01:50:00.392Z,8.7
2022-10-24T01:51:04.642Z,8.7
2022-10-24T01:52:09.215Z,8.6
2022-10-24T01:53:13.197Z,9
2022-10-24T01:54:17.269Z,8.3
2022-10-24T01:55:21.398Z,8.8
2022-10-24T01:56:25.553Z,8.1
2022-10-24T01:57:29.629Z,8.3
2022-10-24T01:58:33.787Z,8.9
2022-10-24T01:59:37.854Z,8.5
2022-10-24T02:01:46.106Z,9.2
2022-10-24T02:02:50.093Z,8.5
2022-10-24T02:03:59.602Z,7.9
2022-10-24T02:05:03.702Z,8.5
2022-10-24T02:06:10.935Z,8.5
2022-10-24T02:07:20.654Z,9.2
2022-10-24T02:08:24.713Z,8.9
2022-10-24T02:09:28.830Z,8.9
2022-10-24T02:10:32.893Z,9.1
2022-10-24T02:11:40.089Z,9
2022-10-24T02:12:44.433Z,8.8
2022-10-24T02:13:48.258Z,8.7
2022-10-24T02:14:57.430Z,8.6
2022-10-24T02:16:01.869Z,9.1
2022-10-24T02:17:05.989Z,8.8
2022-10-24T02:18:10.057Z,8.6
2022-10-24T02:19:14.258Z,9.1
2022-10-24T02:20:18.373Z,9
2022-10-24T02:21:27.977Z,9.1
2022-10-24T02:22:32.120Z,8.6
2022-10-24T02:23:42.354Z,8.3
2022-10-24T02:24:57.137Z,8.8
2022-10-24T02:26:01.600Z,8.2
2022-10-24T02:27:05.757Z,8.7
2022-10-24T02:28:12.901Z,8.6
2022-10-24T02:29:17.566Z,8.9
2022-10-24T02:30:27.273Z,8.3
2022-10-24T02:31:31.903Z,8.2
2022-10-24T02:32:36.473Z,9.2
2022-10-24T02:33:40.514Z,9.1
2022-10-24T02:34:44.557Z,9.1
2022-10-24T02:35:48.666Z,9.4
2022-10-24T02:36:52.805Z,9.6
2022-10-24T02:37:56.913Z,9.1
2022-10-24T02:39:11.494Z,10
2022-10-24T02:40:15.592Z,9.5
2022-10-24T02:41:19.701Z,9.8
2022-10-24T02:42:23.838Z,9.6
2022-10-24T02:43:27.977Z,9.8
2022-10-24T02:44:32.101Z,10.9
2022-10-24T02:45:36.541Z,9.9
2022-10-24T02:46:40.778Z,10.4
2022-10-24T02:47:44.971Z,10
2022-10-24T02:48:48.925Z,10.4
2022-10-24T02:49:53.125Z,10.3
2022-10-24T02:50:57.602Z,10.4
2022-10-24T02:52:02.157Z,10.7
2022-10-24T02:53:06.157Z,10.7
2022-10-24T02:54:10.373Z,10.9
2022-10-24T02:55:14.404Z,10.7
2022-10-24T02:56:18.540Z,12.4
2022-10-24T02:57:22.653Z,14.4
2022-10-24T02:58:26.732Z,13.9
2022-10-24T02:59:30.852Z,13.3
2022-10-24T03:00:35.036Z,12.7
2022-10-24T03:01:39.146Z,13.2
2022-10-24T03:02:43.453Z,12.6
2022-10-24T03:03:47.314Z,11.3
2022-10-24T03:04:51.418Z,11.7
2022-10-24T03:05:56.010Z,11.5
2022-10-24T03:07:00.298Z,11
2022-10-24T03:08:04.410Z,11.3
2022-10-24T03:09:08.615Z,11.3
2022-10-24T03:10:12.676Z,10.5
2022-10-24T03:11:16.776Z,10.5
2022-10-24T03:12:20.932Z,10.5
2022-10-24T03:13:25.026Z,11.1
2022-10-24T03:14:29.071Z,11.3
2022-10-24T03:15:33.198Z,11.9
2022-10-24T03:16:37.355Z,11.5
2022-10-24T03:17:41.370Z,11.5
2022-10-24T03:18:45.535Z,11.5
2022-10-24T03:19:49.514Z,11.6
2022-10-24T03:20:53.751Z,11.7
2022-10-24T03:21:58.286Z,12
2022-10-24T03:23:02.635Z,11.7
2022-10-24T03:25:10.866Z,11.5
2022-10-24T03:26:14.990Z,11.6
2022-10-24T03:27:19.159Z,10.5
2022-10-24T03:28:23.795Z,10.2
2022-10-24T03:29:27.858Z,9.7
2022-10-24T03:30:32.058Z,10.2
2022-10-24T03:31:36.562Z,10
2022-10-24T03:32:40.568Z,9.9
2022-10-24T03:33:44.798Z,10.5
2022-10-24T03:34:48.830Z,10.1
2022-10-24T03:35:52.914Z,10.2
2022-10-24T03:36:57.022Z,10.2
2022-10-24T03:38:01.378Z,9.6
2022-10-24T03:39:05.554Z,10.3
2022-10-24T03:40:09.558Z,10.4
2022-10-24T03:41:13.703Z,9.8
2022-10-24T03:42:17.871Z,10.2
2022-10-24T03:43:21.871Z,9.8
2022-10-24T03:44:26.058Z,9.2
2022-10-24T03:45:30.594Z,10
2022-10-24T03:46:34.634Z,9
2022-10-24T03:47:38.786Z,8.7
2022-10-24T03:48:42.899Z,9.1
2022-10-24T03:49:47.004Z,8.6
2022-10-24T03:50:51.159Z,8.9
2022-10-24T03:51:55.191Z,8
2022-10-24T03:52:59.230Z,7.7
2022-10-24T03:54:03.731Z,8.4
2022-10-24T03:55:07.763Z,8
2022-10-24T03:56:11.885Z,8.7
2022-10-24T03:57:16.469Z,8.6
2022-10-24T03:58:20.598Z,8.4
2022-10-24T03:59:24.646Z,9.6
2022-10-24T04:00:28.781Z,8.7
2022-10-24T04:01:32.947Z,7.9
2022-10-24T04:02:37.960Z,8.6
2022-10-24T04:03:41.038Z,8.4
2022-10-24T04:04:45.162Z,8.1
2022-10-24T04:05:49.218Z,8.6
2022-10-24T04:06:53.375Z,8.7
2022-10-24T04:07:57.558Z,8.3
2022-10-24T04:09:01.862Z,7.9
2022-10-24T04:10:05.922Z,8.4
2022-10-24T04:11:10.026Z,7.9
2022-10-24T04:12:14.142Z,7.7
2022-10-24T04:13:18.311Z,7.8
2022-10-24T04:14:22.339Z,7.1
2022-10-24T04:15:26.496Z,7.6
2022-10-24T04:16:30.594Z,7.9
2022-10-24T04:17:34.765Z,8
2022-10-24T04:18:38.950Z,7.6
2022-10-24T04:19:43.350Z,7.4
2022-10-24T04:20:47.422Z,7.1
2022-10-24T04:21:51.594Z,6.4
2022-10-24T04:22:55.692Z,7.8
2022-10-24T04:23:59.815Z,15.8
2022-10-24T04:25:04.255Z,9.3
2022-10-24T04:26:08.813Z,6.2
2022-10-24T04:27:12.934Z,6.8
2022-10-24T04:28:17.482Z,5.6
2022-10-24T04:29:21.582Z,4.7
2022-10-24T04:30:25.706Z,5
2022-10-24T04:31:29.822Z,4.5
2022-10-24T04:32:33.921Z,5.4
2022-10-24T04:33:38.154Z,5.2
2022-10-24T04:34:42.586Z,5.4
2022-10-24T04:35:46.730Z,5.1
2022-10-24T04:36:50.872Z,5.2
2022-10-24T04:37:54.952Z,6.3
2022-10-24T04:40:03.538Z,5.3
2022-10-24T04:41:09.746Z,5
2022-10-24T04:42:12.286Z,5.3
2022-10-24T04:43:16.430Z,4.8
2022-10-24T04:44:20.487Z,5.4
2022-10-24T04:45:24.627Z,5.3
2022-10-24T04:46:28.702Z,5.8
2022-10-24T04:47:32.854Z,4.9
2022-10-24T04:48:36.987Z,4.7
2022-10-24T04:49:41.068Z,5.2
2022-10-24T04:50:45.251Z,5.1
2022-10-24T04:51:49.735Z,5.2
2022-10-24T04:52:53.887Z,5.5
2022-10-24T04:53:58.883Z,5.6
2022-10-24T04:55:20.846Z,4.8
2022-10-24T04:56:25.339Z,4.7
2022-10-24T04:57:29.536Z,4.9
2022-10-24T04:58:33.675Z,5.1
2022-10-24T04:59:37.783Z,4.2
2022-10-24T05:00:42.351Z,4.6
2022-10-24T05:01:46.652Z,4.5
2022-10-24T05:02:52.983Z,4.1
2022-10-24T05:03:55.274Z,4.5
2022-10-24T05:04:59.347Z,4.9
2022-10-24T05:06:03.771Z,4.3
2022-10-24T05:07:08.171Z,4.5
2022-10-24T05:08:12.330Z,4.2
2022-10-24T05:09:16.386Z,4.7
2022-10-24T05:10:20.551Z,4.2
2022-10-24T05:11:24.746Z,4.4
2022-10-24T05:12:28.735Z,4.9
2022-10-24T05:13:34.299Z,4.3
2022-10-24T05:14:37.091Z,4.2
2022-10-24T05:15:41.119Z,4.4
2022-10-24T05:16:45.251Z,4
2022-10-24T05:17:49.326Z,4.5
2022-10-24T05:18:53.441Z,4.6
2022-10-24T05:19:57.491Z,4.9
2022-10-24T05:21:01.943Z,4.5
2022-10-24T05:22:07.222Z,4.1
2022-10-24T05:23:10.047Z,4.5
2022-10-24T05:24:14.223Z,4.3
2022-10-24T05:25:18.282Z,4.2
2022-10-24T05:26:22.370Z,4.3
2022-10-24T05:27:26.662Z,4.5
2022-10-24T05:28:31.069Z,4.3
2022-10-24T05:29:35.950Z,4.6
2022-10-24T05:30:39.310Z,4.6
2022-10-24T05:31:46.451Z,4.7
2022-10-24T05:32:50.715Z,5.2
2022-10-24T05:33:54.898Z,4.8
2022-10-24T05:34:59.491Z,5
2022-10-24T05:36:03.795Z,4.3
2022-10-24T05:37:08.382Z,5.2
2022-10-24T05:38:12.998Z,5.5
2022-10-24T05:39:17.531Z,4.7
2022-10-24T05:40:21.746Z,4.9
2022-10-24T05:41:26.234Z,4.9
2022-10-24T05:42:30.383Z,5.1
2022-10-24T05:43:34.609Z,4.9
2022-10-24T05:44:39.154Z,5.5
2022-10-24T05:45:44.402Z,5.9
2022-10-24T05:46:48.547Z,4.8
2022-10-24T05:47:53.047Z,5.1
2022-10-24T05:48:57.138Z,5.8
2022-10-24T05:50:01.663Z,5.6
2022-10-24T05:51:06.118Z,5.2
2022-10-24T05:52:10.238Z,5.1
2022-10-24T05:53:14.835Z,5.2
2022-10-24T05:54:18.852Z,5.1
2022-10-24T05:55:23.183Z,5.9
2022-10-24T05:56:27.680Z,5.6
2022-10-24T05:57:31.831Z,5.8
2022-10-24T05:58:38.992Z,5.9
2022-10-24T05:59:43.126Z,5.5
2022-10-24T06:00:51.181Z,5.2
2022-10-24T06:01:52.135Z,5.6
2022-10-24T06:02:56.522Z,5.2
2022-10-24T06:04:00.682Z,5.4
2022-10-24T06:05:04.959Z,5.4
2022-10-24T06:06:09.588Z,5.7
2022-10-24T06:07:14.278Z,5.8
2022-10-24T06:08:18.830Z,5.2
2022-10-24T06:09:23.390Z,5.3
2022-10-24T06:10:27.516Z,5.2
2022-10-24T06:11:32.086Z,5.1
2022-10-24T06:12:36.295Z,5.2
2022-10-24T06:13:40.971Z,5.6
2022-10-24T06:14:45.454Z,5.6
2022-10-24T06:15:49.746Z,5.5
2022-10-24T06:16:54.223Z,5.5
2022-10-24T06:17:58.358Z,5.2
2022-10-24T06:19:02.775Z,6
2022-10-24T06:20:07.385Z,6.3
2022-10-24T06:21:11.929Z,6.4
2022-10-24T06:22:16.054Z,5.9
2022-10-24T06:23:20.198Z,5.4
2022-10-24T06:24:24.898Z,5.4
2022-10-24T06:25:29.560Z,5.4
2022-10-24T06:26:34.050Z,5.5
2022-10-24T06:27:38.673Z,6.8
2022-10-24T06:28:43.423Z,5.5
2022-10-24T06:29:47.825Z,6.5
2022-10-24T06:30:51.925Z,6.8
2022-10-24T06:31:56.177Z,6.8
2022-10-24T06:33:00.733Z,6.1
2022-10-24T06:34:05.082Z,6.8
2022-10-24T06:35:09.669Z,6.1
2022-10-24T06:36:14.402Z,6.2
2022-10-24T06:37:18.993Z,6.7
2022-10-24T06:38:23.420Z,5.6
2022-10-24T06:39:27.740Z,5.8
2022-10-24T06:40:32.221Z,5.5
2022-10-24T06:41:39.501Z,6.3
2022-10-24T06:42:44.257Z,6.2
2022-10-24T06:43:48.710Z,6.2
2022-10-24T06:44:53.351Z,6.4
2022-10-24T06:45:57.886Z,6.8
2022-10-24T06:47:02.087Z,6.2
2022-10-24T06:48:06.467Z,5.9
2022-10-24T06:49:11.014Z,7.2
2022-10-24T06:50:15.668Z,6.5
2022-10-24T06:51:20.216Z,7.3
2022-10-24T06:52:24.807Z,6.8
2022-10-24T06:53:29.041Z,6.3
2022-10-24T06:54:33.469Z,7.4
2022-10-24T06:55:38.040Z,6.2
2022-10-24T06:56:42.809Z,6.4
2022-10-24T06:57:47.814Z,6.7
2022-10-24T06:58:51.891Z,7.1
2022-10-24T06:59:56.424Z,7.1
2022-10-24T07:01:00.862Z,7.2
2022-10-24T07:02:07.759Z,6.3
2022-10-24T07:03:12.404Z,6.8
2022-10-24T07:04:16.888Z,6.4
2022-10-24T07:05:21.535Z,6
2022-10-24T07:06:26.104Z,6.6
2022-10-24T07:07:30.254Z,7
2022-10-24T07:08:34.723Z,7.5
2022-10-24T07:09:39.405Z,7.3
2022-10-24T07:10:44.364Z,7.4
2022-10-24T07:11:48.693Z,7.5
2022-10-24T07:12:52.886Z,7
2022-10-24T07:13:59.592Z,7.1
2022-10-24T07:15:02.457Z,6.5
2022-10-24T07:16:06.926Z,6.2
2022-10-24T07:17:11.467Z,6.6
2022-10-24T07:18:16.009Z,6.6
2022-10-24T07:19:20.193Z,6.4
2022-10-24T07:20:24.954Z,6.6
2022-10-24T07:21:29.473Z,6.5
2022-10-24T07:22:34.000Z,7.5
2022-10-24T07:23:38.645Z,7
2022-10-24T07:24:43.497Z,6.8
2022-10-24T07:25:48.016Z,7.5
2022-10-24T07:26:52.596Z,7.2
2022-10-24T07:27:57.001Z,6.7
2022-10-24T07:30:06.205Z,6.3
2022-10-24T07:31:10.873Z,7.1
2022-10-24T07:32:18.202Z,8.1
2022-10-24T07:33:22.617Z,7.2
2022-10-24T07:34:26.885Z,6.4
2022-10-24T07:35:31.565Z,5.9
2022-10-24T07:36:38.806Z,6.9
2022-10-24T07:37:40.170Z,6.8
2022-10-24T07:38:44.879Z,6.2
2022-10-24T07:39:49.165Z,6
2022-10-24T07:40:53.836Z,7.3
2022-10-24T07:41:58.417Z,7.2
2022-10-24T07:43:02.873Z,6.6
2022-10-24T07:44:07.189Z,6.6
2022-10-24T07:45:11.717Z,8
2022-10-24T07:46:16.273Z,7.4
2022-10-24T07:47:20.856Z,8.7
2022-10-24T07:48:25.293Z,8.1
2022-10-24T07:49:30.269Z,8.7
2022-10-24T07:50:34.153Z,7.6
2022-10-24T07:51:44.028Z,8.2
2022-10-24T07:52:48.669Z,7.3
2022-10-24T07:53:52.979Z,7.4
2022-10-24T07:54:57.541Z,8.3
2022-10-24T07:56:01.785Z,7.4
2022-10-24T07:57:09.424Z,7.1
2022-10-24T07:58:13.917Z,8.5
2022-10-24T07:59:30.204Z,7.8
2022-10-24T08:00:22.786Z,7.7
2022-10-24T08:01:27.456Z,8.2
2022-10-24T08:02:32.115Z,9
2022-10-24T08:03:36.705Z,7.6
2022-10-24T08:04:42.064Z,6.6
2022-10-24T08:05:46.390Z,7.1
2022-10-24T08:06:50.749Z,5.9
2022-10-24T08:07:55.823Z,7.3
2022-10-24T08:08:59.486Z,6.7
2022-10-24T08:10:03.934Z,6.6
2022-10-24T08:11:08.266Z,6.7
2022-10-24T08:12:18.137Z,7.6
2022-10-24T08:13:22.721Z,7.2
2022-10-24T08:14:27.341Z,6.7
2022-10-24T08:15:31.632Z,7
2022-10-24T08:16:36.426Z,6.9
2022-10-24T08:17:40.706Z,6.8
2022-10-24T08:18:45.159Z,6.6
2022-10-24T08:19:49.640Z,6.1
2022-10-24T08:20:54.294Z,6.2
2022-10-24T08:21:58.973Z,7.5
2022-10-24T08:23:03.711Z,6
2022-10-24T08:24:08.123Z,6.9
2022-10-24T08:25:12.631Z,6.4
2022-10-24T08:26:16.913Z,6
2022-10-24T08:27:21.333Z,6.1
2022-10-24T08:28:26.133Z,5.7
2022-10-24T08:29:30.803Z,5.8
2022-10-24T08:30:36.203Z,6.3
2022-10-24T08:31:40.863Z,6.1
2022-10-24T08:32:45.617Z,5.9
2022-10-24T08:33:49.886Z,5.9
2022-10-24T08:34:54.634Z,7.1
2022-10-24T08:35:59.112Z,6.2
2022-10-24T08:37:03.231Z,6.1
2022-10-24T08:38:07.602Z,6.2
2022-10-24T08:39:12.051Z,6.4
2022-10-24T08:40:16.565Z,5.9
2022-10-24T08:41:20.619Z,6.5
2022-10-24T08:42:30.379Z,6.4
2022-10-24T08:43:35.034Z,5.7
2022-10-24T08:44:39.677Z,6.3
2022-10-24T08:45:44.159Z,5.9
2022-10-24T08:46:56.866Z,6.3
2022-10-24T08:48:06.535Z,6.4
2022-10-24T08:49:11.519Z,5.7
2022-10-24T08:50:15.780Z,6.2
2022-10-24T08:51:25.579Z,6.5
2022-10-24T08:52:30.059Z,8.6
2022-10-24T08:53:44.875Z,8.8
2022-10-24T08:54:49.364Z,8.6
2022-10-24T08:55:54.059Z,8.1
2022-10-24T08:56:58.495Z,6.5
2022-10-24T08:58:02.695Z,6.5
2022-10-24T08:59:06.791Z,9
2022-10-24T09:00:11.024Z,8.8
2022-10-24T09:01:23.849Z,9.9
2022-10-24T09:02:33.670Z,8
2022-10-24T09:03:54.817Z,6.7
2022-10-24T09:04:42.015Z,7.6
2022-10-24T09:05:46.615Z,6.9
2022-10-24T09:06:51.124Z,6.3
2022-10-24T09:07:55.809Z,5.8
2022-10-24T09:09:00.211Z,7.2
2022-10-24T09:10:04.474Z,7.1
2022-10-24T09:11:14.879Z,6.3
2022-10-24T09:12:27.435Z,6.5
2022-10-24T09:13:31.933Z,5.9
2022-10-24T09:14:36.522Z,5.7
2022-10-24T09:15:41.100Z,6.7
2022-10-24T09:16:45.607Z,6.1
2022-10-24T09:17:52.805Z,6.2
2022-10-24T09:18:57.368Z,5.7
2022-10-24T09:20:02.067Z,5.5
2022-10-24T09:21:16.707Z,5.8
2022-10-24T09:22:21.351Z,6.6
2022-10-24T09:23:25.832Z,5.8
2022-10-24T09:24:30.032Z,5.9
2022-10-24T09:25:39.706Z,5.9
2022-10-24T09:26:44.415Z,5.8
2022-10-24T09:27:49.230Z,5.7
2022-10-24T09:28:53.515Z,6
2022-10-24T09:29:58.066Z,6.1
2022-10-24T09:31:02.588Z,6.5
2022-10-24T09:32:17.515Z,5.5
2022-10-24T09:33:22.055Z,5.4
2022-10-24T09:34:31.683Z,6.4
2022-10-24T09:35:36.171Z,6.2
2022-10-24T09:36:40.936Z,5.7
2022-10-24T09:37:47.306Z,6.6
2022-10-24T09:38:53.171Z,6.6
2022-10-24T09:39:57.615Z,6.9
2022-10-24T09:41:08.591Z,6.8
2022-10-24T09:42:21.218Z,6.7
2022-10-24T09:43:25.616Z,7.5
2022-10-24T09:44:35.855Z,6.4
2022-10-24T09:45:40.467Z,6.9
2022-10-24T09:46:51.233Z,7.8
2022-10-24T09:47:55.776Z,7.7
2022-10-24T09:49:05.221Z,8.1
2022-10-24T09:50:14.527Z,6.8
2022-10-24T09:51:22.167Z,7.8
2022-10-24T09:52:29.231Z,6.8
2022-10-24T09:53:34.004Z,7.3
2022-10-24T09:54:38.455Z,6.8
2022-10-24T09:55:43.068Z,7
2022-10-24T09:56:49.899Z,6.4
2022-10-24T09:57:54.363Z,6.4
2022-10-24T09:58:59.131Z,7.1
2022-10-24T10:00:13.803Z,7.8
2022-10-24T10:01:20.992Z,8.2
2022-10-24T10:02:25.569Z,7.4
2022-10-24T10:03:29.595Z,7.5
2022-10-24T10:04:34.223Z,7.5
2022-10-24T10:05:38.596Z,6.7
2022-10-24T10:06:42.883Z,5.7
2022-10-24T10:07:49.880Z,6.4
2022-10-24T10:08:53.931Z,6.2
2022-10-24T10:09:58.042Z,6.3
2022-10-24T10:11:02.148Z,7.3
2022-10-24T10:12:09.685Z,6.2
2022-10-24T10:13:24.134Z,6.3
2022-10-24T10:14:28.246Z,6.5
2022-10-24T10:15:32.967Z,6.2
2022-10-24T10:16:37.607Z,7.4
2022-10-24T10:17:41.899Z,7.7
2022-10-24T10:18:49.068Z,7.2
2022-10-24T10:19:53.365Z,6.9
2022-10-24T10:20:57.990Z,7
2022-10-24T10:22:10.115Z,7.3
2022-10-24T10:23:22.331Z,7
2022-10-24T10:24:29.534Z,6.9
2022-10-24T10:25:34.235Z,6.9
2022-10-24T10:26:38.792Z,5.7
2022-10-24T10:27:43.641Z,5
2022-10-24T10:28:47.899Z,4.9
2022-10-24T10:30:00.639Z,5.9
2022-10-24T10:31:07.807Z,5.9
2022-10-24T10:32:12.318Z,5.9
2022-10-24T10:33:24.639Z,5.4
2022-10-24T10:34:36.735Z,6.3
2022-10-24T10:35:40.891Z,6.6
2022-10-24T10:36:53.212Z,5.7
2022-10-24T10:38:05.922Z,5.2
2022-10-24T10:39:15.627Z,5
2022-10-24T10:40:25.247Z,5.7
2022-10-24T10:41:34.907Z,5.8
2022-10-24T10:42:45.005Z,5.5
2022-10-24T10:43:54.615Z,5.5
2022-10-24T10:45:09.154Z,5.6
2022-10-24T10:46:16.227Z,5.8
2022-10-24T10:47:30.878Z,5.2
2022-10-24T10:48:43.366Z,5.6
2022-10-24T10:49:52.789Z,5.2
2022-10-24T10:50:57.299Z,5.6
2022-10-24T10:52:09.739Z,5.1
2022-10-24T10:53:19.451Z,5.2
2022-10-24T10:54:31.655Z,6.1
2022-10-24T10:55:41.375Z,6.5
2022-10-24T10:56:48.507Z,6.7
2022-10-24T10:57:53.110Z,7
2022-10-24T10:59:02.680Z,6.7
2022-10-24T11:00:09.811Z,7.5
2022-10-24T11:01:22.288Z,7.1
2022-10-24T11:02:29.845Z,5.8
2022-10-24T11:03:39.038Z,6.3
2022-10-24T11:04:46.087Z,6.4
2022-10-24T11:05:58.379Z,6.7
2022-10-24T11:07:08.112Z,6.2
2022-10-24T11:08:17.169Z,6.3
2022-10-24T11:09:28.004Z,6.6
2022-10-24T11:10:37.238Z,6.1
2022-10-24T11:11:41.759Z,5.2
2022-10-24T11:12:53.895Z,4.5
2022-10-24T11:13:58.592Z,5.1
2022-10-24T11:15:13.309Z,5
2022-10-24T11:16:17.386Z,4.9
2022-10-24T11:17:27.181Z,5.4
2022-10-24T11:18:41.839Z,5.8
2022-10-24T11:19:46.311Z,5.8
2022-10-24T11:20:50.699Z,6.1
2022-10-24T11:22:03.691Z,7.1
2022-10-24T11:23:07.896Z,6.7
2022-10-24T11:24:18.479Z,6.7
2022-10-24T11:25:22.868Z,7.1
2022-10-24T11:26:32.519Z,7.9
2022-10-24T11:27:42.402Z,6.9
2022-10-24T11:28:51.964Z,6.5
2022-10-24T11:30:01.971Z,6.3
2022-10-24T11:31:14.300Z,6.9
2022-10-24T11:32:24.128Z,6.8
2022-10-24T11:33:38.825Z,6.9
2022-10-24T11:34:43.456Z,7
2022-10-24T11:35:48.060Z,6.7
2022-10-24T11:36:57.469Z,7.2
2022-10-24T11:38:07.153Z,6.8
2022-10-24T11:39:14.468Z,6.5
2022-10-24T11:40:21.817Z,7.4
2022-10-24T11:41:26.427Z,6.5
2022-10-24T11:42:33.996Z,6.6
2022-10-24T11:43:46.138Z,6.2
2022-10-24T11:44:50.773Z,6.6
2022-10-24T11:46:00.223Z,6
2022-10-24T11:47:12.668Z,6.8
2022-10-24T11:48:25.342Z,6.3
2022-10-24T11:49:32.520Z,6.6
2022-10-24T11:50:37.233Z,6.1
2022-10-24T11:51:44.286Z,5.8
2022-10-24T11:52:53.869Z,6.8
2022-10-24T11:54:08.563Z,6.5
2022-10-24T11:55:12.861Z,6.3
2022-10-24T11:56:23.549Z,6.1
2022-10-24T11:57:34.709Z,6.2
2022-10-24T11:58:39.216Z,6.9
2022-10-24T11:59:43.492Z,6.1
2022-10-24T12:00:48.286Z,6.1
2022-10-24T12:01:51.932Z,5.2
2022-10-24T12:02:56.213Z,5.8
2022-10-24T12:04:05.856Z,5.7
2022-10-24T12:05:19.563Z,5.7
2022-10-24T12:06:27.843Z,5.5
2022-10-24T12:07:40.376Z,5.7
2022-10-24T12:08:55.264Z,6.5
2022-10-24T12:10:02.714Z,5
2022-10-24T12:11:17.286Z,5.8
2022-10-24T12:12:24.578Z,5.5
2022-10-24T12:13:39.240Z,6.2
2022-10-24T12:14:51.416Z,5.5
2022-10-24T12:15:58.949Z,5.4
2022-10-24T12:17:13.889Z,6.3
2022-10-24T12:18:23.500Z,5.6
2022-10-24T12:19:28.036Z,5.5
2022-10-24T12:20:32.252Z,5.4
2022-10-24T12:21:36.453Z,6.3
2022-10-24T12:22:41.057Z,5.7
2022-10-24T12:23:45.705Z,5.1
2022-10-24T12:24:52.994Z,5.7
2022-10-24T12:26:02.537Z,6.3
2022-10-24T12:27:12.012Z,5.8
2022-10-24T12:28:24.356Z,6.4
2022-10-24T12:29:29.248Z,5.9
2022-10-24T12:30:33.725Z,5.8
2022-10-24T12:31:38.062Z,5.7
2022-10-24T12:32:42.686Z,6.3
2022-10-24T12:33:53.276Z,6.1
2022-10-24T12:35:35.922Z,6.1
2022-10-24T12:36:22.849Z,5.4
2022-10-24T12:37:27.340Z,5.8
2022-10-24T12:38:31.590Z,5.8
2022-10-24T12:39:36.533Z,7
2022-10-24T12:40:43.951Z,5.9
2022-10-24T12:41:51.166Z,6.7
2022-10-24T12:42:55.704Z,6.8
2022-10-24T12:43:59.952Z,7.1
2022-10-24T12:45:14.752Z,6.4
2022-10-24T12:46:24.507Z,6.5
2022-10-24T12:47:29.093Z,6.2
2022-10-24T12:48:38.521Z,6.9
2022-10-24T12:49:53.292Z,6.2
2022-10-24T12:50:57.641Z,6.9
2022-10-24T12:52:10.408Z,6.3
2022-10-24T12:53:25.207Z,6.1
2022-10-24T12:54:32.408Z,5.9
2022-10-24T12:55:42.476Z,7.3
2022-10-24T12:56:47.034Z,6.5
2022-10-24T12:57:50.826Z,6.1
2022-10-24T12:58:55.013Z,5.8
2022-10-24T12:59:59.488Z,6.7
2022-10-24T13:01:04.141Z,6.8
2022-10-24T13:02:16.501Z,6.3
2022-10-24T13:03:20.852Z,5.7
2022-10-24T13:04:30.643Z,6.3
2022-10-24T13:05:42.720Z,5.3
2022-10-24T13:06:57.565Z,6
2022-10-24T13:08:09.714Z,5.7
2022-10-24T13:09:27.499Z,5.7
2022-10-24T13:10:42.436Z,6
2022-10-24T13:11:54.221Z,5.6
2022-10-24T13:13:04.672Z,7.3
2022-10-24T13:14:19.687Z,5.2
2022-10-24T13:15:31.837Z,5.9
2022-10-24T13:16:42.316Z,5.9
2022-10-24T13:17:51.677Z,6
2022-10-24T13:19:01.328Z,6
2022-10-24T13:20:16.175Z,6.9
2022-10-24T13:21:27.770Z,5.9
2022-10-24T13:22:35.617Z,6.1
2022-10-24T13:23:40.177Z,5.8
2022-10-24T13:24:45.629Z,6
2022-10-24T13:25:49.871Z,5.6
2022-10-24T13:26:57.072Z,6
2022-10-24T13:28:04.569Z,5.8
2022-10-24T13:29:19.286Z,5.4
2022-10-24T13:30:24.008Z,5.6
2022-10-24T13:31:29.247Z,6.5
2022-10-24T13:32:43.843Z,5.8
2022-10-24T13:33:48.090Z,5.5
2022-10-24T13:34:52.348Z,5.3
2022-10-24T13:35:56.989Z,5.5
2022-10-24T13:37:09.118Z,6.1
2022-10-24T13:38:13.614Z,5.5
2022-10-24T13:39:18.181Z,6.2
2022-10-24T13:40:22.860Z,5.5
2022-10-24T13:41:29.989Z,5.2
2022-10-24T13:42:40.329Z,5.5
2022-10-24T13:43:52.481Z,5.5
2022-10-24T13:44:57.149Z,5.2
2022-10-24T13:46:06.547Z,5.3
2022-10-24T13:47:12.321Z,5.3
2022-10-24T13:48:21.897Z,5.5
2022-10-24T13:49:26.789Z,5.1
2022-10-24T13:50:34.125Z,5.7
2022-10-24T13:51:41.185Z,5.7
2022-10-24T13:52:48.999Z,5.1
2022-10-24T13:53:52.616Z,5.2
2022-10-24T13:54:57.284Z,5.9
2022-10-24T13:56:01.421Z,5.7
2022-10-24T13:57:05.938Z,5.4
2022-10-24T13:58:20.529Z,5.9
2022-10-24T13:59:24.658Z,6.3
2022-10-24T14:00:34.950Z,5.3
2022-10-24T14:02:44.316Z,5.3
2022-10-24T14:03:48.265Z,5.9
2022-10-24T14:04:56.130Z,5.3
2022-10-24T14:05:57.520Z,5.4
2022-10-24T14:07:01.980Z,6.1
2022-10-24T14:08:06.141Z,6.7
2022-10-24T14:09:10.299Z,5.3
2022-10-24T14:10:14.612Z,7.2
2022-10-24T14:11:19.866Z,6
2022-10-24T14:12:23.821Z,5
2022-10-24T14:13:28.368Z,5
2022-10-24T14:14:32.604Z,5.1
2022-10-24T14:15:37.253Z,5.2
2022-10-24T14:16:41.694Z,5.2
2022-10-24T14:17:45.914Z,5.4
2022-10-24T14:18:58.579Z,6.2
2022-10-24T14:20:13.327Z,5.2
2022-10-24T14:21:23.488Z,5.4
2022-10-24T14:22:27.688Z,5.4
2022-10-24T14:23:37.129Z,5.5
2022-10-24T14:24:41.309Z,5.5
2022-10-24T14:25:45.873Z,6.1
2022-10-24T14:26:56.417Z,6.4
2022-10-24T14:28:00.604Z,5.6
2022-10-24T14:29:15.501Z,5.7
2022-10-24T14:30:25.992Z,5.4
2022-10-24T14:31:30.073Z,5.7
2022-10-24T14:32:37.361Z,5.9
2022-10-24T14:33:41.485Z,5.5
2022-10-24T14:34:45.702Z,5.4
2022-10-24T14:35:51.323Z,5.3
2022-10-24T14:36:54.818Z,5.6
2022-10-24T14:38:04.948Z,5.5
2022-10-24T14:39:06.856Z,6.7
2022-10-24T14:40:11.486Z,5.7
2022-10-24T14:41:15.569Z,6.1
2022-10-24T14:42:19.689Z,5.2
2022-10-24T14:43:23.799Z,5.2
2022-10-24T14:44:27.942Z,5.8
2022-10-24T14:45:32.018Z,6.4
2022-10-24T14:46:36.084Z,5.8
2022-10-24T14:47:40.260Z,6
2022-10-24T14:48:44.573Z,6.3
2022-10-24T14:49:48.910Z,6.3
2022-10-24T14:50:53.044Z,6.3
2022-10-24T14:52:05.266Z,6.2
2022-10-24T14:53:09.437Z,6.7
2022-10-24T14:54:18.932Z,6.9
2022-10-24T14:55:25.652Z,6.5
2022-10-24T14:56:29.837Z,5.9
2022-10-24T14:57:34.382Z,6.5
2022-10-24T14:58:38.572Z,6.3
2022-10-24T14:59:43.194Z,6.6
2022-10-24T15:00:47.304Z,6.6
2022-10-24T15:01:51.477Z,6.8
2022-10-24T15:02:56.190Z,7.8
2022-10-24T15:04:00.657Z,8.2
2022-10-24T15:05:07.505Z,8
2022-10-24T15:06:14.722Z,8.7
2022-10-24T15:07:21.944Z,8.8
2022-10-24T15:08:29.095Z,9.5
2022-10-24T15:09:36.437Z,9.7
2022-10-24T15:10:51.125Z,7.6
2022-10-24T15:12:05.806Z,7.5
2022-10-24T15:13:10.444Z,7.4
2022-10-24T15:14:15.261Z,7.8
2022-10-24T15:15:34.046Z,7.9